Time;durP1;ratioP1;P1;durP2;ratioP2;P2;SDS_P1;SDS_P2;PMS_P1;PMS_P2;Temp;Humidity;BMP_temperature;BMP_pressure;BME280_temperature;BME280_humidity;BME280_pressure;Samples;Min_cycle;Max_cycle;Signal;HPM_P1;HPM_P2
2021/05/16 00:00:29;;;;;;;12.50;6.22;;;;;;;9.48;53.97;100012.75;4997018;28;20129;-67
2021/05/16 00:02:55;;;;;;;12.52;6.97;;;;;;;9.59;53.94;100013.06;4983826;28;20705;-67
2021/05/16 00:05:24;;;;;;;10.48;6.25;;;;;;;9.45;54.37;100012.88;4996563;28;20121;-67
2021/05/16 00:07:50;;;;;;;13.48;6.97;;;;;;;9.22;54.37;100014.00;4998935;28;20038;-68
2021/05/16 00:10:18;;;;;;;10.20;6.35;;;;;;;9.01;55.02;100018.47;4998212;28;20352;-68
2021/05/16 00:12:44;;;;;;;12.38;6.88;;;;;;;8.98;54.84;100009.91;5002507;28;20038;-67
2021/05/16 00:15:13;;;;;;;10.07;6.50;;;;;;;9.14;54.52;100009.16;4980989;28;20085;-67
2021/05/16 00:17:39;;;;;;;13.32;7.13;;;;;;;9.23;54.51;100003.53;4998860;28;20038;-67
2021/05/16 00:20:09;;;;;;;11.95;6.38;;;;;;;9.26;54.33;100002.53;4998670;28;20081;-67
2021/05/16 00:22:36;;;;;;;12.27;7.15;;;;;;;9.22;54.02;99999.22;4982249;28;20122;-67
2021/05/16 00:25:03;;;;;;;15.32;7.15;;;;;;;9.21;54.13;99994.94;4982497;28;20061;-67
2021/05/16 00:27:28;;;;;;;11.43;7.05;;;;;;;9.11;54.39;99988.44;4980520;28;20034;-68
2021/05/16 00:29:54;;;;;;;10.07;7.30;;;;;;;9.08;54.22;99997.28;5001378;28;20042;-68
2021/05/16 00:32:19;;;;;;;11.27;6.97;;;;;;;9.00;54.38;100002.00;4986207;28;20050;-67
2021/05/16 00:34:45;;;;;;;11.52;6.43;;;;;;;8.91;54.48;99998.06;4973641;28;20030;-67
2021/05/16 00:37:10;;;;;;;11.18;7.35;;;;;;;8.87;54.55;100001.72;4986096;28;20372;-67
2021/05/16 00:39:35;;;;;;;11.43;5.88;;;;;;;8.83;54.29;100000.19;4986097;28;20109;-67
2021/05/16 00:42:01;;;;;;;9.73;6.70;;;;;;;8.75;54.29;99992.72;4984819;28;20058;-67
2021/05/16 00:44:27;;;;;;;10.38;5.68;;;;;;;8.65;54.62;99995.78;4986345;28;20034;-67
2021/05/16 00:46:52;;;;;;;13.82;6.82;;;;;;;8.64;54.42;100000.16;5000841;28;20064;-67
2021/05/16 00:49:18;;;;;;;11.85;6.93;;;;;;;8.53;54.57;99997.19;4988647;28;20046;-69
2021/05/16 00:51:44;;;;;;;12.90;6.80;;;;;;;8.49;54.75;99998.25;4984609;28;20467;-67
2021/05/16 00:54:10;;;;;;;11.73;6.65;;;;;;;8.43;54.64;99993.34;4991066;28;20041;-67
2021/05/16 00:56:37;;;;;;;11.48;6.90;;;;;;;8.38;55.07;99992.69;4982893;28;20042;-67
2021/05/16 00:59:04;;;;;;;11.80;6.57;;;;;;;8.30;54.97;99985.22;4985874;28;20120;-67
2021/05/16 01:01:31;;;;;;;10.32;6.72;;;;;;;8.30;55.15;99990.44;5000700;28;20049;-67
2021/05/16 01:03:59;;;;;;;14.13;7.13;;;;;;;8.21;55.32;99996.88;4984331;28;20038;-67
2021/05/16 01:06:24;;;;;;;14.23;7.30;;;;;;;8.20;55.51;99995.16;4990068;28;20186;-67
2021/05/16 01:08:51;;;;;;;12.15;7.43;;;;;;;8.20;55.15;100002.16;5002803;28;20034;-68
2021/05/16 01:11:18;;;;;;;12.82;7.35;;;;;;;8.19;55.17;99997.88;4988111;28;20823;-68
2021/05/16 01:13:47;;;;;;;10.98;6.30;;;;;;;8.18;55.37;99997.00;4984004;28;20070;-68
2021/05/16 01:16:13;;;;;;;13.65;7.63;;;;;;;8.13;55.41;99999.81;5000204;28;20125;-69
2021/05/16 01:18:39;;;;;;;12.93;7.35;;;;;;;8.14;55.49;100004.13;4984699;28;20122;-68
2021/05/16 01:21:07;;;;;;;11.40;7.03;;;;;;;8.20;55.53;99989.97;4985224;28;20037;-68
2021/05/16 01:23:44;;;;;;;12.13;7.47;;;;;;;8.20;55.38;99991.72;4983879;28;20057;-68
2021/05/16 01:26:15;;;;;;;;;;;;;;;8.15;55.63;99990.16;4978733;28;20026;-68
2021/05/16 01:28:44;;;;;;;12.52;7.10;;;;;;;8.24;55.42;99995.91;4985390;28;19929;-68
2021/05/16 01:31:11;;;;;;;10.68;7.18;;;;;;;8.23;55.34;99995.06;5000474;28;20051;-68
2021/05/16 01:33:37;;;;;;;8.70;6.13;;;;;;;8.23;55.73;99989.00;4983463;28;20173;-68
2021/05/16 01:36:04;;;;;;;12.10;7.15;;;;;;;8.15;55.42;99992.78;4985671;28;20109;-68
2021/05/16 01:38:30;;;;;;;10.57;5.95;;;;;;;8.15;55.43;99989.34;4976075;28;20037;-68
2021/05/16 01:40:56;;;;;;;8.05;5.80;;;;;;;8.08;55.06;99993.97;4983574;28;20480;-69
2021/05/16 01:43:37;;;;;;;12.85;6.88;;;;;;;8.04;55.16;99997.59;4982076;28;20042;-68
2021/05/16 01:46:04;;;;;;;10.80;6.88;;;;;;;8.08;54.95;99993.13;4984777;28;20033;-68
2021/05/16 01:48:29;;;;;;;11.27;7.20;;;;;;;8.02;55.67;100002.03;4984501;28;20077;-68
2021/05/16 01:50:55;;;;;;;10.98;6.57;;;;;;;8.03;55.25;99998.53;4970641;28;20121;-68
2021/05/16 01:53:21;;;;;;;16.15;7.72;;;;;;;8.03;55.30;99992.50;4985185;28;20041;-68
2021/05/16 01:55:46;;;;;;;9.85;6.18;;;;;;;8.05;55.30;100001.06;4983055;28;20034;-68
2021/05/16 01:58:12;;;;;;;15.05;6.60;;;;;;;7.99;55.40;99991.75;4988965;28;20041;-68
2021/05/16 02:00:41;;;;;;;13.70;7.55;;;;;;;7.90;55.48;99992.16;4985032;28;20730;-67
2021/05/16 02:03:15;;;;;;;12.65;6.18;;;;;;;7.85;55.51;99988.94;4967600;28;20056;-67
2021/05/16 02:05:44;;;;;;;11.10;6.53;;;;;;;7.79;55.47;99991.78;4984642;28;20042;-67
2021/05/16 02:08:10;;;;;;;10.57;7.10;;;;;;;7.72;55.60;99984.22;5004919;28;20072;-67
2021/05/16 02:10:37;;;;;;;11.80;7.00;;;;;;;7.71;55.36;99984.28;4982758;28;20039;-67
2021/05/16 02:13:08;;;;;;;14.40;8.32;;;;;;;7.70;55.76;99988.66;4984671;28;20543;-68
2021/05/16 02:15:36;;;;;;;11.95;7.60;;;;;;;7.76;55.46;99984.94;4983802;28;20037;-67
2021/05/16 02:18:03;;;;;;;17.02;8.00;;;;;;;7.77;55.61;99983.19;5000021;28;20037;-67
2021/05/16 02:20:29;;;;;;;13.93;7.63;;;;;;;7.73;55.73;99985.94;4989407;28;20464;-67
2021/05/16 02:22:55;;;;;;;13.57;7.68;;;;;;;7.80;55.75;99981.31;4984152;28;20050;-67
2021/05/16 02:25:21;;;;;;;13.60;7.47;;;;;;;7.90;55.78;99986.97;4982448;28;20088;-67
2021/05/16 02:27:48;;;;;;;13.38;7.43;;;;;;;8.01;55.40;99986.50;4968132;28;20060;-67
2021/05/16 02:30:17;;;;;;;14.02;8.02;;;;;;;7.96;55.42;99984.09;4971057;28;20504;-67
2021/05/16 02:32:44;;;;;;;15.40;8.07;;;;;;;7.96;55.74;99981.50;4983504;28;20042;-67
2021/05/16 02:35:11;;;;;;;13.10;8.95;;;;;;;8.03;55.32;99982.06;4982624;28;20046;-67
2021/05/16 02:37:59;;;;;;;11.88;7.45;;;;;;;7.94;55.20;99984.16;4977300;28;20137;-67
2021/05/16 02:40:26;;;;;;;12.65;8.05;;;;;;;7.83;55.47;99975.13;4981961;28;20053;-68
2021/05/16 02:42:52;;;;;;;13.07;8.15;;;;;;;7.90;55.74;99986.97;4983936;28;20591;-68
2021/05/16 02:45:18;;;;;;;12.65;7.85;;;;;;;7.97;55.26;99977.97;4982344;28;20038;-68
2021/05/16 02:47:45;;;;;;;16.75;8.15;;;;;;;8.00;55.30;99982.19;4967824;28;20053;-68
2021/05/16 02:50:15;;;;;;;12.40;7.80;;;;;;;8.02;55.61;99983.81;4998130;28;20030;-68
2021/05/16 02:52:56;;;;;;;;;;;;;;;7.98;55.33;99979.69;4971115;28;20181;-68
2021/05/16 02:55:23;;;;;;;9.15;5.95;;;;;;;8.00;55.49;99983.03;4998688;28;19917;-68
2021/05/16 02:57:49;;;;;;;12.95;7.07;;;;;;;8.12;55.53;99982.50;4970511;28;20128;-68
2021/05/16 03:00:17;;;;;;;12.38;7.82;;;;;;;8.11;55.38;99972.16;4966737;28;20041;-68
2021/05/16 03:02:43;;;;;;;14.25;7.85;;;;;;;8.17;55.29;99973.66;4983388;28;20031;-68
2021/05/16 03:05:09;;;;;;;16.17;9.43;;;;;;;8.08;55.34;99967.09;4989270;28;20041;-67
2021/05/16 03:07:35;;;;;;;15.52;8.73;;;;;;;8.05;55.07;99975.06;4969140;28;20049;-68
2021/05/16 03:10:02;;;;;;;11.38;7.18;;;;;;;8.01;55.36;99973.50;4982494;28;20034;-68
2021/05/16 03:12:28;;;;;;;14.20;7.97;;;;;;;7.99;55.40;99981.34;4998165;28;20788;-68
2021/05/16 03:14:54;;;;;;;11.55;7.57;;;;;;;7.98;55.39;99977.06;4998613;28;20062;-68
2021/05/16 03:17:20;;;;;;;11.45;7.57;;;;;;;7.97;55.23;99980.56;4982441;28;20500;-68
2021/05/16 03:19:45;;;;;;;13.38;7.70;;;;;;;7.99;55.53;99970.09;4984512;28;20472;-68
2021/05/16 03:22:11;;;;;;;10.23;7.03;;;;;;;7.92;55.27;99974.72;4969977;28;20057;-68
2021/05/16 03:24:38;;;;;;;13.23;8.00;;;;;;;7.94;55.63;99963.34;4983429;28;20036;-68
2021/05/16 03:27:07;;;;;;;13.80;7.97;;;;;;;8.01;55.47;99969.13;4998429;28;20704;-68
2021/05/16 03:29:34;;;;;;;13.93;7.82;;;;;;;8.10;55.32;99960.91;4983015;28;20038;-68
2021/05/16 03:31:59;;;;;;;13.02;7.80;;;;;;;8.14;55.41;99970.28;4982351;28;20042;-68
2021/05/16 03:34:25;;;;;;;15.10;8.48;;;;;;;8.21;55.61;99964.81;4983438;28;20129;-68
2021/05/16 03:36:51;;;;;;;14.73;7.80;;;;;;;8.23;55.35;99976.00;4982789;28;20113;-68
2021/05/16 03:39:17;;;;;;;13.75;8.90;;;;;;;8.30;55.14;99974.81;4982538;28;20044;-68
2021/05/16 03:41:43;;;;;;;13.85;8.93;;;;;;;8.32;55.50;99971.22;4982760;28;20034;-68
2021/05/16 03:44:08;;;;;;;11.27;7.72;;;;;;;8.35;55.18;99962.41;4983073;28;20902;-68
2021/05/16 03:46:34;;;;;;;13.02;9.15;;;;;;;8.36;55.24;99964.97;4987365;28;20101;-68
2021/05/16 03:49:00;;;;;;;13.90;9.38;;;;;;;8.35;55.51;99978.03;4982321;28;20036;-68
2021/05/16 03:51:26;;;;;;;11.27;7.75;;;;;;;8.36;55.33;99969.34;4982700;28;20038;-68
2021/05/16 03:53:52;;;;;;;13.93;8.40;;;;;;;8.38;55.46;99979.66;4998132;28;20049;-68
2021/05/16 03:56:17;;;;;;;13.95;9.13;;;;;;;8.40;55.23;99975.22;4982630;28;20045;-68
2021/05/16 03:58:43;;;;;;;11.60;8.27;;;;;;;8.44;55.01;99979.38;4965886;28;20640;-68
2021/05/16 04:01:08;;;;;;;13.98;9.07;;;;;;;8.41;54.85;99977.78;4967285;28;20029;-68
2021/05/16 04:03:34;;;;;;;14.40;8.63;;;;;;;8.40;55.09;99980.44;5007264;28;21127;-68
2021/05/16 04:06:00;;;;;;;14.13;9.05;;;;;;;8.43;55.14;99982.91;4989743;28;20117;-68
2021/05/16 04:08:25;;;;;;;13.95;8.30;;;;;;;8.42;55.15;99982.03;4988360;28;20061;-68
2021/05/16 04:10:51;;;;;;;16.25;9.27;;;;;;;8.42;54.91;99978.59;4988349;28;20042;-68
2021/05/16 04:13:16;;;;;;;16.73;9.23;;;;;;;8.41;55.15;99982.13;4988874;28;20114;-68
2021/05/16 04:15:42;;;;;;;13.80;9.00;;;;;;;8.44;55.36;99975.00;4989226;28;20037;-68
2021/05/16 04:18:08;;;;;;;15.30;9.02;;;;;;;8.48;54.85;99978.34;4974915;28;20038;-68
2021/05/16 04:20:33;;;;;;;15.23;8.15;;;;;;;8.42;55.02;99973.41;4988338;28;20038;-68
2021/05/16 04:22:59;;;;;;;13.10;9.05;;;;;;;8.48;55.02;99979.16;4988249;28;20038;-68
2021/05/16 04:25:27;;;;;;;14.43;9.05;;;;;;;8.50;55.17;99977.34;4989248;28;20041;-68
2021/05/16 04:27:53;;;;;;;11.68;7.78;;;;;;;8.51;54.85;99976.41;4988220;28;20515;-68
2021/05/16 04:30:20;;;;;;;12.02;7.95;;;;;;;8.53;54.92;99976.34;4988557;28;20030;-68
2021/05/16 04:32:45;;;;;;;14.20;8.68;;;;;;;8.59;55.06;99975.25;4987922;28;20026;-68
2021/05/16 04:35:11;;;;;;;13.40;8.52;;;;;;;8.67;54.72;99984.41;4988727;28;20125;-68
2021/05/16 04:37:37;;;;;;;11.45;7.22;;;;;;;8.73;54.98;99973.69;5003935;28;20664;-68
2021/05/16 04:40:04;;;;;;;12.40;8.60;;;;;;;8.84;54.65;99981.03;4987060;28;20041;-68
2021/05/16 04:42:30;;;;;;;11.63;7.93;;;;;;;8.96;54.95;99974.38;5003971;28;20038;-68
2021/05/16 04:44:57;;;;;;;13.73;8.18;;;;;;;8.90;54.00;99978.13;4987694;28;20108;-68
2021/05/16 04:47:23;;;;;;;11.60;8.40;;;;;;;8.84;54.33;99975.81;4989270;28;20042;-68
2021/05/16 04:49:48;;;;;;;10.48;7.28;;;;;;;8.84;54.71;99975.81;4988045;28;20057;-68
2021/05/16 04:52:14;;;;;;;12.93;7.82;;;;;;;8.84;54.58;99978.41;4987918;28;20064;-68
2021/05/16 04:54:39;;;;;;;9.20;6.95;;;;;;;8.85;54.51;99982.72;4987124;28;20069;-68
2021/05/16 04:57:05;;;;;;;14.93;8.07;;;;;;;8.85;54.60;99972.31;4989455;28;20504;-68
2021/05/16 04:59:31;;;;;;;15.07;8.20;;;;;;;8.84;54.28;99981.03;4989386;28;20116;-69
2021/05/16 05:01:57;;;;;;;11.77;7.97;;;;;;;8.92;54.77;99978.91;4993484;28;20030;-68
2021/05/16 05:04:22;;;;;;;12.38;8.35;;;;;;;9.03;54.33;99977.53;5004039;28;20038;-68
2021/05/16 05:06:48;;;;;;;9.32;6.68;;;;;;;9.09;54.18;99979.84;4987448;28;20034;-68
2021/05/16 05:09:13;;;;;;;10.23;7.50;;;;;;;9.09;54.14;99974.66;4972270;28;20447;-68
2021/05/16 05:11:39;;;;;;;9.98;6.82;;;;;;;9.21;54.19;99979.28;4989195;28;20038;-68
2021/05/16 05:14:04;;;;;;;12.00;7.93;;;;;;;9.28;53.69;99974.63;4987314;28;20050;-68
2021/05/16 05:16:30;;;;;;;10.95;6.93;;;;;;;9.39;53.69;99977.53;4986146;28;20065;-68
2021/05/16 05:18:56;;;;;;;13.45;8.35;;;;;;;9.42;53.59;99968.72;4983891;28;20678;-68
2021/05/16 05:21:21;;;;;;;14.50;7.22;;;;;;;9.47;53.78;99974.53;4985378;28;20093;-68
2021/05/16 05:23:47;;;;;;;10.05;6.78;;;;;;;9.54;53.24;99975.91;4985034;28;20057;-68
2021/05/16 05:26:12;;;;;;;9.73;6.72;;;;;;;9.56;53.54;99979.28;4983681;28;20042;-68
2021/05/16 05:28:38;;;;;;;12.82;7.38;;;;;;;9.62;53.64;99973.78;4983470;28;20042;-68
2021/05/16 05:31:03;;;;;;;10.20;7.38;;;;;;;9.75;53.22;99972.22;5000462;28;20459;-68
2021/05/16 05:33:29;;;;;;;9.27;7.00;;;;;;;9.75;53.35;99972.22;4982740;28;20067;-68
2021/05/16 05:35:55;;;;;;;9.20;7.32;;;;;;;9.84;53.36;99977.94;4985572;28;20379;-69
2021/05/16 05:38:20;;;;;;;10.05;6.80;;;;;;;10.16;52.88;99974.50;4983524;28;20030;-68
2021/05/16 05:40:47;;;;;;;8.50;6.40;;;;;;;10.29;52.72;99971.25;5000237;28;20034;-68
2021/05/16 05:43:13;;;;;;;11.45;6.40;;;;;;;10.46;52.06;99975.53;4987588;28;20038;-68
2021/05/16 05:45:39;;;;;;;11.48;7.30;;;;;;;10.40;51.66;99974.13;4983012;28;20121;-68
2021/05/16 05:48:05;;;;;;;9.23;6.00;;;;;;;10.14;52.43;99971.09;4967885;28;20038;-70
2021/05/16 05:50:31;;;;;;;8.60;6.80;;;;;;;10.41;52.49;99976.66;4985034;28;20038;-68
2021/05/16 05:53:01;;;;;;;9.43;6.57;;;;;;;10.59;52.25;99977.44;4986037;28;20044;-68
2021/05/16 05:55:27;;;;;;;7.97;6.38;;;;;;;10.80;51.24;99967.56;4985956;28;20050;-68
2021/05/16 05:57:53;;;;;;;7.07;5.70;;;;;;;10.95;51.87;99970.28;5003072;28;20026;-68
2021/05/16 06:00:18;;;;;;;8.07;6.13;;;;;;;10.82;50.41;99976.19;4975336;28;20604;-68
2021/05/16 06:02:44;;;;;;;8.93;6.07;;;;;;;11.10;50.79;99976.44;4984379;28;20134;-68
2021/05/16 06:05:10;;;;;;;7.88;6.03;;;;;;;10.77;50.37;99969.50;4983567;28;20100;-68
2021/05/16 06:07:36;;;;;;;10.88;7.38;;;;;;;10.29;51.44;99973.84;4984206;28;21213;-68
2021/05/16 06:10:02;;;;;;;11.32;7.15;;;;;;;10.42;51.78;99980.13;4984624;28;20034;-69
2021/05/16 06:12:28;;;;;;;9.60;6.35;;;;;;;10.38;51.86;99979.41;4977778;28;20069;-68
2021/05/16 06:14:54;;;;;;;9.13;7.35;;;;;;;9.97;53.06;99981.63;4985367;28;20092;-68
2021/05/16 06:17:19;;;;;;;8.07;6.55;;;;;;;10.24;52.86;99975.88;4984051;28;20064;-68
2021/05/16 06:19:45;;;;;;;13.00;6.55;;;;;;;10.30;52.68;99972.91;4984364;28;20038;-68
2021/05/16 06:22:13;;;;;;;9.30;7.50;;;;;;;10.46;52.55;99978.16;4984905;28;20039;-68
2021/05/16 06:24:40;;;;;;;10.00;6.90;;;;;;;10.24;52.79;99975.88;4985765;28;20084;-68
2021/05/16 06:27:05;;;;;;;9.50;7.50;;;;;;;10.42;52.72;99980.13;4983063;28;20556;-68
2021/05/16 06:29:31;;;;;;;12.52;7.72;;;;;;;10.41;53.29;99978.41;4983176;28;20051;-68
2021/05/16 06:31:56;;;;;;;9.43;7.07;;;;;;;10.74;52.44;99980.13;4967255;28;20072;-68
2021/05/16 06:34:22;;;;;;;12.15;7.78;;;;;;;10.77;52.42;99985.19;4982341;28;20038;-68
2021/05/16 06:36:47;;;;;;;11.60;8.20;;;;;;;10.58;52.16;99985.34;4982506;28;20081;-68
2021/05/16 06:39:13;;;;;;;10.27;7.95;;;;;;;10.64;52.30;99980.63;4987549;28;20038;-68
2021/05/16 06:41:38;;;;;;;11.63;8.25;;;;;;;10.72;51.95;99988.03;4983695;28;20669;-68
2021/05/16 06:44:04;;;;;;;10.88;7.68;;;;;;;11.11;51.88;99984.19;4983256;28;20041;-68
2021/05/16 06:46:29;;;;;;;10.80;8.57;;;;;;;11.25;51.04;99984.25;4982971;28;20127;-68
2021/05/16 06:48:56;;;;;;;10.45;7.60;;;;;;;10.38;51.93;99984.66;4986536;28;20049;-68
2021/05/16 06:51:22;;;;;;;15.82;8.70;;;;;;;10.86;52.15;99984.72;4984985;28;20053;-68
2021/05/16 06:53:47;;;;;;;16.45;9.68;;;;;;;11.05;52.02;99985.38;4990686;28;20094;-68
2021/05/16 06:56:14;;;;;;;15.27;8.77;;;;;;;11.10;51.74;99979.88;4982764;28;20066;-68
2021/05/16 06:58:41;;;;;;;12.70;9.18;;;;;;;11.28;51.33;99988.44;4987796;28;20035;-68
2021/05/16 07:01:08;;;;;;;13.52;8.93;;;;;;;11.09;51.61;99986.06;4983079;28;20038;-68
2021/05/16 07:03:35;;;;;;;16.10;9.70;;;;;;;11.33;51.03;99991.66;4983143;28;20085;-68
2021/05/16 07:06:01;;;;;;;11.57;8.30;;;;;;;11.50;51.05;99989.84;4982276;28;20038;-68
2021/05/16 07:08:27;;;;;;;16.23;10.95;;;;;;;11.88;50.10;99985.84;4981413;28;20082;-68
2021/05/16 07:10:52;;;;;;;15.82;10.43;;;;;;;11.75;51.30;99984.00;4983129;28;20121;-68
2021/05/16 07:13:18;;;;;;;14.23;9.57;;;;;;;11.58;50.11;99988.47;4988994;28;20156;-68
2021/05/16 07:15:43;;;;;;;17.23;10.35;;;;;;;11.95;49.46;99985.47;4997215;28;20137;-68
2021/05/16 07:18:09;;;;;;;14.43;9.07;;;;;;;12.25;48.95;99983.63;4982301;28;20056;-68
2021/05/16 07:20:34;;;;;;;15.73;10.18;;;;;;;12.44;48.28;99978.06;4983029;28;20038;-68
2021/05/16 07:23:00;;;;;;;14.82;10.07;;;;;;;12.11;47.92;99983.63;4965570;28;20042;-68
2021/05/16 07:25:25;;;;;;;14.65;10.10;;;;;;;12.22;48.43;99989.06;4995194;28;20117;-68
2021/05/16 07:27:52;;;;;;;15.70;10.25;;;;;;;12.43;48.26;99991.31;4996914;28;20042;-68
2021/05/16 07:30:18;;;;;;;16.65;10.57;;;;;;;12.20;48.27;99988.31;4981566;28;20743;-68
2021/05/16 07:32:44;;;;;;;15.95;10.10;;;;;;;12.33;48.41;99992.78;4982446;28;20109;-69
2021/05/16 07:35:10;;;;;;;19.35;10.38;;;;;;;12.25;48.00;99993.28;4983154;28;20041;-68
2021/05/16 07:37:36;;;;;;;15.18;10.25;;;;;;;12.25;48.33;99999.34;4982306;28;23862;-68
2021/05/16 07:40:04;;;;;;;17.50;9.93;;;;;;;11.74;49.95;99991.03;5001332;28;20045;-68
2021/05/16 07:42:29;;;;;;;14.07;9.68;;;;;;;12.10;49.38;99996.81;4983030;28;20041;-68
2021/05/16 07:44:55;;;;;;;14.43;9.95;;;;;;;12.22;48.25;100007.41;4982574;28;20145;-68
2021/05/16 07:47:20;;;;;;;16.67;10.30;;;;;;;12.34;47.30;100000.56;4983666;28;20054;-68
2021/05/16 07:49:46;;;;;;;16.08;9.55;;;;;;;12.50;47.69;99992.59;4982604;28;20110;-68
2021/05/16 07:52:12;;;;;;;18.75;10.20;;;;;;;11.75;48.16;99990.09;4984921;28;20485;-68
2021/05/16 07:54:37;;;;;;;12.93;9.23;;;;;;;12.16;48.22;99999.06;5001669;28;20064;-68
2021/05/16 07:57:03;;;;;;;15.55;10.48;;;;;;;12.09;47.59;100003.84;4988064;28;20045;-68
2021/05/16 07:59:30;;;;;;;17.17;11.38;;;;;;;12.13;48.51;100002.69;4982438;28;20045;-68
2021/05/16 08:01:55;;;;;;;14.45;8.93;;;;;;;12.21;47.32;99997.84;4981825;28;20113;-69
2021/05/16 08:04:21;;;;;;;16.35;10.45;;;;;;;11.85;48.09;100001.75;4980688;28;20133;-70
2021/05/16 08:06:46;;;;;;;13.18;9.20;;;;;;;12.10;46.93;99999.44;4981454;28;20030;-69
2021/05/16 08:09:12;;;;;;;15.30;9.73;;;;;;;11.67;48.00;99998.41;4980484;28;20038;-68
2021/05/16 08:11:37;;;;;;;14.23;9.77;;;;;;;12.25;47.45;99999.34;4979099;28;20042;-68
2021/05/16 08:14:03;;;;;;;17.65;11.38;;;;;;;11.90;47.84;99996.22;4995034;28;20073;-68
2021/05/16 08:16:30;;;;;;;17.48;10.15;;;;;;;11.75;48.38;99994.47;4979402;28;20034;-68
2021/05/16 08:18:56;;;;;;;20.98;10.00;;;;;;;12.31;47.63;99999.91;4979388;28;20089;-68
2021/05/16 08:21:22;;;;;;;18.02;10.45;;;;;;;12.35;47.17;99993.53;4979938;28;20034;-68
2021/05/16 08:23:47;;;;;;;15.38;10.02;;;;;;;11.95;48.35;99995.94;4979864;28;20449;-68
2021/05/16 08:26:13;;;;;;;17.70;10.23;;;;;;;11.76;48.60;99991.78;4980850;28;20027;-68
2021/05/16 08:28:38;;;;;;;15.20;10.43;;;;;;;12.03;48.72;99998.97;4978951;28;20065;-68
2021/05/16 08:31:04;;;;;;;21.95;10.57;;;;;;;12.27;47.94;99996.63;4996006;28;20149;-68
2021/05/16 08:33:30;;;;;;;16.83;10.35;;;;;;;12.17;48.04;99991.09;4978355;28;20416;-68
2021/05/16 08:35:55;;;;;;;18.67;9.88;;;;;;;12.84;47.10;99980.84;4979563;28;20503;-69
2021/05/16 08:38:21;;;;;;;16.73;9.65;;;;;;;13.22;45.20;99982.78;4981011;28;20042;-68
2021/05/16 08:40:46;;;;;;;18.65;9.93;;;;;;;14.66;42.04;99979.22;4981105;28;20388;-68
2021/05/16 08:43:12;;;;;;;13.88;8.90;;;;;;;16.16;38.91;99985.66;4994277;28;20680;-68
2021/05/16 08:45:37;;;;;;;14.70;8.20;;;;;;;18.13;34.73;99972.25;4979611;28;20037;-69
2021/05/16 08:48:04;;;;;;;13.10;6.65;;;;;;;17.39;34.88;99970.53;4979252;28;20041;-68
2021/05/16 08:50:30;;;;;;;12.90;7.88;;;;;;;16.26;36.62;99978.69;4982852;28;20072;-68
2021/05/16 08:52:56;;;;;;;16.85;8.68;;;;;;;17.19;35.15;99973.00;4990541;28;20030;-68
2021/05/16 08:55:22;;;;;;;10.00;7.30;;;;;;;18.89;33.28;99964.72;4999511;28;20048;-68
2021/05/16 08:57:48;;;;;;;12.50;7.22;;;;;;;18.63;33.33;99970.50;4984102;28;20046;-69
2021/05/16 09:03:05;;;;;;;16.83;7.32;;;;;;;21.02;29.89;99966.91;5001316;28;20060;-62
2021/05/16 09:05:42;;;;;;;10.50;6.93;;;;;;;18.91;30.53;99967.25;5002266;28;20041;-63
2021/05/16 09:08:12;;;;;;;10.40;4.82;;;;;;;17.31;32.12;99965.03;5003797;28;20034;-64
2021/05/16 09:10:43;;;;;;;7.57;4.13;;;;;;;18.21;31.92;99965.38;5002193;28;20129;-63
2021/05/16 09:13:20;;;;;;;10.57;5.27;;;;;;;18.20;31.71;99976.06;5001252;28;20036;-63
2021/05/16 09:16:09;;;;;;;10.68;6.70;;;;;;;15.40;35.91;99966.81;5003790;28;20041;-63
2021/05/16 09:18:45;;;;;;;13.40;6.85;;;;;;;15.36;37.22;99967.97;5001470;28;20061;-62
2021/05/16 09:21:22;;;;;;;11.57;6.55;;;;;;;14.70;38.89;99975.38;5002638;28;20534;-63
2021/05/16 09:24:09;;;;;;;17.27;7.20;;;;;;;15.26;37.45;99972.22;5002625;28;20037;-65
2021/05/16 09:26:49;;;;;;;11.02;6.05;;;;;;;15.49;37.67;99963.47;4999985;28;20663;-62
2021/05/16 09:29:23;;;;;;;14.23;6.93;;;;;;;15.68;38.74;99969.97;4986566;28;20454;-63
2021/05/16 09:31:51;;;;;;;20.10;7.20;;;;;;;15.45;37.53;99972.56;5001973;28;20029;-62
2021/05/16 09:34:16;;;;;;;11.00;5.75;;;;;;;15.69;38.79;99966.41;5000840;28;20129;-63
2021/05/16 09:36:45;;;;;;;13.60;6.47;;;;;;;15.28;38.63;99965.06;5003642;28;20613;-64
2021/05/16 09:39:27;;;;;;;12.70;6.93;;;;;;;15.33;38.69;99970.84;5002244;28;20491;-62
2021/05/16 09:42:03;;;;;;;;;;;;;;;15.32;38.97;99969.16;5003320;28;20026;-63
2021/05/16 09:44:33;;;;;;;15.77;7.13;;;;;;;15.70;38.16;99968.06;5017410;28;19927;-63
2021/05/16 09:47:18;;;;;;;9.00;5.57;;;;;;;15.41;38.13;99959.72;5003329;28;20207;-63
2021/05/16 09:49:58;;;;;;;14.68;6.13;;;;;;;14.89;39.11;99969.66;5003946;28;20034;-64
2021/05/16 09:52:27;;;;;;;11.13;6.15;;;;;;;14.69;39.52;99971.09;5002961;28;20038;-63
2021/05/16 09:55:03;;;;;;;12.23;6.13;;;;;;;14.72;39.22;99962.97;5001984;28;20252;-64
2021/05/16 09:57:31;;;;;;;8.27;5.35;;;;;;;14.30;39.73;99968.53;5001764;28;20040;-63
2021/05/16 09:59:58;;;;;;;10.60;4.97;;;;;;;14.59;39.21;99963.03;5003904;28;20254;-64
2021/05/16 10:02:27;;;;;;;13.35;5.82;;;;;;;13.53;42.02;99968.47;5002209;28;20038;-63
2021/05/16 10:04:54;;;;;;;12.25;6.22;;;;;;;14.29;40.90;99958.94;5003425;28;20122;-64
2021/05/16 10:07:21;;;;;;;11.18;6.00;;;;;;;14.86;40.70;99964.63;5000286;28;20064;-64
2021/05/16 10:09:47;;;;;;;11.85;6.22;;;;;;;14.73;40.99;99965.50;4993154;28;20034;-63
2021/05/16 10:12:15;;;;;;;10.25;5.72;;;;;;;16.49;37.85;99962.84;5000616;28;20036;-63
2021/05/16 10:14:46;;;;;;;13.57;6.13;;;;;;;17.68;38.21;99952.25;5002217;28;20045;-62
2021/05/16 10:17:12;;;;;;;10.52;6.25;;;;;;;16.65;35.42;99957.22;5001427;28;20033;-65
2021/05/16 10:19:40;;;;;;;6.78;4.75;;;;;;;15.85;35.99;99959.00;5002407;28;20590;-63
2021/05/16 10:22:14;;;;;;;8.00;4.57;;;;;;;14.75;38.12;99960.97;5000813;28;20065;-61
2021/05/16 10:24:43;;;;;;;8.40;4.70;;;;;;;15.02;38.73;99962.53;5002261;28;20485;-63
2021/05/16 10:27:18;;;;;;;13.10;5.57;;;;;;;13.68;41.39;99971.06;5000554;28;20037;-64
2021/05/16 10:30:06;;;;;;;7.82;4.63;;;;;;;11.40;46.92;99974.69;5000903;28;20402;-63
2021/05/16 10:32:48;;;;;;;3.47;1.63;;;;;;;11.91;45.05;99981.34;5000371;28;20053;-64
2021/05/16 10:35:14;;;;;;;4.28;1.30;;;;;;;11.39;44.71;99982.59;5002460;28;20059;-63
2021/05/16 10:37:45;;;;;;;1.80;0.73;;;;;;;11.48;45.69;99986.47;5000878;28;20729;-63
2021/05/16 10:40:24;;;;;;;5.15;0.95;;;;;;;11.40;46.47;99981.69;5001583;28;20077;-63
2021/05/16 10:42:53;;;;;;;3.90;1.45;;;;;;;11.71;46.70;99990.34;5000249;28;20057;-65
2021/05/16 10:45:36;;;;;;;4.35;1.88;;;;;;;11.27;48.75;99989.41;5001417;28;20057;-64
2021/05/16 10:48:07;;;;;;;8.75;2.38;;;;;;;11.62;49.76;99983.88;5002521;28;20959;-64
2021/05/16 10:50:35;;;;;;;4.78;1.45;;;;;;;12.03;47.53;99993.72;4998958;28;20041;-63
2021/05/16 10:53:09;;;;;;;3.45;1.83;;;;;;;11.81;47.77;99989.75;4999430;28;20673;-63
2021/05/16 10:55:49;;;;;;;2.42;1.33;;;;;;;12.46;46.92;99996.34;5001912;28;20034;-63
2021/05/16 10:58:33;;;;;;;1.95;1.20;;;;;;;11.63;47.85;99996.06;5001047;28;20056;-64
2021/05/16 11:01:06;;;;;;;3.70;1.10;;;;;;;11.16;46.15;100000.47;5000629;28;20033;-63
2021/05/16 11:03:57;;;;;;;1.17;0.47;;;;;;;10.15;48.58;100004.16;4999585;28;20044;-63
2021/05/16 11:06:38;;;;;;;0.82;0.20;;;;;;;10.32;47.49;100008.47;5008019;28;20044;-62
2021/05/16 11:09:04;;;;;;;0.98;0.55;;;;;;;9.87;48.54;100014.31;5012168;28;20068;-63
2021/05/16 11:11:49;;;;;;;1.77;0.20;;;;;;;10.14;49.13;100014.66;5007781;28;20125;-64
2021/05/16 11:14:22;;;;;;;1.52;0.20;;;;;;;9.96;50.21;100019.06;5001564;28;20108;-64
2021/05/16 11:16:49;;;;;;;0.57;0.25;;;;;;;10.03;50.42;100015.22;5001433;28;20026;-63
2021/05/16 11:19:15;;;;;;;1.08;0.30;;;;;;;10.16;49.77;100013.66;5003045;28;20057;-63
2021/05/16 11:21:41;;;;;;;3.05;0.40;;;;;;;10.15;49.50;100011.16;5001977;28;20064;-63
2021/05/16 11:24:07;;;;;;;0.88;0.50;;;;;;;10.01;49.43;99998.78;5001413;28;20555;-62
2021/05/16 11:26:32;;;;;;;1.65;0.70;;;;;;;9.94;49.56;99998.25;5002069;28;20042;-62
2021/05/16 11:28:59;;;;;;;2.30;0.40;;;;;;;10.01;51.13;100006.59;5003259;28;20277;-65
2021/05/16 11:31:28;;;;;;;0.93;0.30;;;;;;;9.67;52.15;100012.69;4999209;28;20037;-64
2021/05/16 11:33:59;;;;;;;0.77;0.38;;;;;;;9.44;52.91;100014.66;4998109;28;20042;-63